sensor_id;sensor_type;location;lat;lon;timestamp;P1;durP1;ratioP1;P2;durP2;ratioP2
54735;SDS011;40632;51.442;11.936;2022-10-01T00:00:32;8.60;;;7.13;;
54735;SDS011;40632;51.442;11.936;2022-10-01T00:02:58;12.00;;;7.35;;
54735;SDS011;40632;51.442;11.936;2022-10-01T00:05:23;12.07;;;7.80;;
54735;SDS011;40632;51.442;11.936;2022-10-01T00:07:49;8.20;;;6.97;;
54735;SDS011;40632;51.442;11.936;2022-10-01T00:10:15;10.48;;;7.13;;
54735;SDS011;40632;51.442;11.936;2022-10-01T00:12:42;8.63;;;7.25;;
54735;SDS011;40632;51.442;11.936;2022-10-01T00:15:12;9.00;;;6.88;;
54735;SDS011;40632;51.442;11.936;2022-10-01T00:17:40;9.88;;;6.68;;
54735;SDS011;40632;51.442;11.936;2022-10-01T00:20:06;10.45;;;6.78;;
54735;SDS011;40632;51.442;11.936;2022-10-01T00:22:32;9.32;;;7.28;;
54735;SDS011;40632;51.442;11.936;2022-10-01T00:24:58;10.60;;;7.28;;
54735;SDS011;40632;51.442;11.936;2022-10-01T00:27:24;8.63;;;6.97;;
54735;SDS011;40632;51.442;11.936;2022-10-01T00:29:50;10.13;;;7.10;;
54735;SDS011;40632;51.442;11.936;2022-10-01T00:32:19;11.55;;;7.03;;
54735;SDS011;40632;51.442;11.936;2022-10-01T00:34:44;12.77;;;6.78;;
54735;SDS011;40632;51.442;11.936;2022-10-01T00:37:10;9.07;;;7.85;;
54735;SDS011;40632;51.442;11.936;2022-10-01T00:39:36;8.68;;;7.57;;
54735;SDS011;40632;51.442;11.936;2022-10-01T00:42:02;8.85;;;7.95;;
54735;SDS011;40632;51.442;11.936;2022-10-01T00:44:29;10.52;;;8.80;;
54735;SDS011;40632;51.442;11.936;2022-10-01T00:46:57;10.57;;;9.55;;
54735;SDS011;40632;51.442;11.936;2022-10-01T00:49:31;11.18;;;10.07;;
54735;SDS011;40632;51.442;11.936;2022-10-01T00:52:01;11.98;;;10.73;;
54735;SDS011;40632;51.442;11.936;2022-10-01T00:54:30;14.57;;;11.20;;
54735;SDS011;40632;51.442;11.936;2022-10-01T00:56:58;12.75;;;11.27;;
54735;SDS011;40632;51.442;11.936;2022-10-01T00:59:25;15.75;;;11.93;;
54735;SDS011;40632;51.442;11.936;2022-10-01T01:01:52;13.57;;;12.18;;
54735;SDS011;40632;51.442;11.936;2022-10-01T01:04:18;14.63;;;13.13;;
54735;SDS011;40632;51.442;11.936;2022-10-01T01:06:46;14.93;;;13.27;;
54735;SDS011;40632;51.442;11.936;2022-10-01T01:09:15;17.20;;;13.38;;
54735;SDS011;40632;51.442;11.936;2022-10-01T01:11:43;14.43;;;12.77;;
54735;SDS011;40632;51.442;11.936;2022-10-01T01:14:17;15.70;;;12.32;;
54735;SDS011;40632;51.442;11.936;2022-10-01T01:16:50;15.48;;;11.77;;
54735;SDS011;40632;51.442;11.936;2022-10-01T01:19:23;14.10;;;11.90;;
54735;SDS011;40632;51.442;11.936;2022-10-01T01:22:05;13.75;;;12.23;;
54735;SDS011;40632;51.442;11.936;2022-10-01T01:24:47;14.88;;;13.07;;
54735;SDS011;40632;51.442;11.936;2022-10-01T01:27:25;16.27;;;13.52;;
54735;SDS011;40632;51.442;11.936;2022-10-01T01:30:00;18.42;;;12.82;;
54735;SDS011;40632;51.442;11.936;2022-10-01T01:32:28;16.23;;;13.30;;
54735;SDS011;40632;51.442;11.936;2022-10-01T01:34:56;14.40;;;12.30;;
54735;SDS011;40632;51.442;11.936;2022-10-01T01:37:25;12.88;;;11.52;;
54735;SDS011;40632;51.442;11.936;2022-10-01T01:39:54;13.98;;;12.23;;
54735;SDS011;40632;51.442;11.936;2022-10-01T01:42:23;14.07;;;12.10;;
54735;SDS011;40632;51.442;11.936;2022-10-01T01:44:53;12.30;;;10.85;;
54735;SDS011;40632;51.442;11.936;2022-10-01T01:47:24;12.32;;;11.05;;
54735;SDS011;40632;51.442;11.936;2022-10-01T01:49:51;10.48;;;9.18;;
54735;SDS011;40632;51.442;11.936;2022-10-01T01:52:17;9.98;;;8.25;;
54735;SDS011;40632;51.442;11.936;2022-10-01T01:54:43;10.77;;;8.00;;
54735;SDS011;40632;51.442;11.936;2022-10-01T01:57:11;8.35;;;6.90;;
54735;SDS011;40632;51.442;11.936;2022-10-01T01:59:36;9.40;;;7.43;;
54735;SDS011;40632;51.442;11.936;2022-10-01T02:02:02;10.50;;;7.30;;
54735;SDS011;40632;51.442;11.936;2022-10-01T02:04:32;8.70;;;7.65;;
54735;SDS011;40632;51.442;11.936;2022-10-01T02:07:05;8.30;;;7.50;;
54735;SDS011;40632;51.442;11.936;2022-10-01T02:09:45;12.10;;;7.05;;
54735;SDS011;40632;51.442;11.936;2022-10-01T02:12:18;8.65;;;6.68;;
54735;SDS011;40632;51.442;11.936;2022-10-01T02:14:51;8.80;;;7.05;;
54735;SDS011;40632;51.442;11.936;2022-10-01T02:17:23;8.23;;;7.13;;
54735;SDS011;40632;51.442;11.936;2022-10-01T02:19:57;9.52;;;8.27;;
54735;SDS011;40632;51.442;11.936;2022-10-01T02:22:28;9.98;;;8.98;;
54735;SDS011;40632;51.442;11.936;2022-10-01T02:25:00;14.25;;;9.90;;
54735;SDS011;40632;51.442;11.936;2022-10-01T02:27:28;11.73;;;9.68;;
54735;SDS011;40632;51.442;11.936;2022-10-01T02:29:56;11.85;;;9.40;;
54735;SDS011;40632;51.442;11.936;2022-10-01T02:32:25;10.40;;;9.30;;
54735;SDS011;40632;51.442;11.936;2022-10-01T02:34:57;10.65;;;9.10;;
54735;SDS011;40632;51.442;11.936;2022-10-01T02:37:25;10.38;;;9.27;;
54735;SDS011;40632;51.442;11.936;2022-10-01T02:39:51;10.70;;;9.00;;
54735;SDS011;40632;51.442;11.936;2022-10-01T02:42:20;11.63;;;8.60;;
54735;SDS011;40632;51.442;11.936;2022-10-01T02:44:47;9.45;;;8.30;;
54735;SDS011;40632;51.442;11.936;2022-10-01T02:47:17;11.07;;;7.75;;
54735;SDS011;40632;51.442;11.936;2022-10-01T02:49:45;9.27;;;7.78;;
54735;SDS011;40632;51.442;11.936;2022-10-01T02:52:15;10.13;;;7.90;;
54735;SDS011;40632;51.442;11.936;2022-10-01T02:54:47;9.10;;;8.15;;
54735;SDS011;40632;51.442;11.936;2022-10-01T02:57:17;8.88;;;7.97;;
54735;SDS011;40632;51.442;11.936;2022-10-01T02:59:43;14.57;;;8.95;;
54735;SDS011;40632;51.442;11.936;2022-10-01T03:02:09;10.70;;;9.00;;
54735;SDS011;40632;51.442;11.936;2022-10-01T03:04:35;12.20;;;9.05;;
54735;SDS011;40632;51.442;11.936;2022-10-01T03:07:00;10.77;;;9.55;;
54735;SDS011;40632;51.442;11.936;2022-10-01T03:09:29;13.40;;;10.80;;
54735;SDS011;40632;51.442;11.936;2022-10-01T03:11:55;11.77;;;9.98;;
54735;SDS011;40632;51.442;11.936;2022-10-01T03:14:20;15.60;;;13.27;;
54735;SDS011;40632;51.442;11.936;2022-10-01T03:16:46;15.30;;;13.57;;
54735;SDS011;40632;51.442;11.936;2022-10-01T03:19:11;17.73;;;15.07;;
54735;SDS011;40632;51.442;11.936;2022-10-01T03:21:37;17.95;;;14.82;;
54735;SDS011;40632;51.442;11.936;2022-10-01T03:24:02;14.52;;;11.73;;
54735;SDS011;40632;51.442;11.936;2022-10-01T03:26:31;13.55;;;10.77;;
54735;SDS011;40632;51.442;11.936;2022-10-01T03:28:56;11.70;;;8.93;;
54735;SDS011;40632;51.442;11.936;2022-10-01T03:31:22;9.95;;;8.70;;
54735;SDS011;40632;51.442;11.936;2022-10-01T03:33:47;11.30;;;7.25;;
54735;SDS011;40632;51.442;11.936;2022-10-01T03:36:13;7.53;;;6.82;;
54735;SDS011;40632;51.442;11.936;2022-10-01T03:38:38;9.70;;;6.70;;
54735;SDS011;40632;51.442;11.936;2022-10-01T03:41:04;6.85;;;6.10;;
54735;SDS011;40632;51.442;11.936;2022-10-01T03:43:32;8.30;;;6.75;;
54735;SDS011;40632;51.442;11.936;2022-10-01T03:45:58;8.20;;;6.25;;
54735;SDS011;40632;51.442;11.936;2022-10-01T03:48:23;9.07;;;6.88;;
54735;SDS011;40632;51.442;11.936;2022-10-01T03:50:52;11.27;;;6.70;;
54735;SDS011;40632;51.442;11.936;2022-10-01T03:53:19;8.98;;;6.32;;
54735;SDS011;40632;51.442;11.936;2022-10-01T03:55:45;7.45;;;6.18;;
54735;SDS011;40632;51.442;11.936;2022-10-01T03:58:10;6.82;;;6.00;;
54735;SDS011;40632;51.442;11.936;2022-10-01T04:00:39;7.43;;;6.63;;
54735;SDS011;40632;51.442;11.936;2022-10-01T04:03:04;8.45;;;7.03;;
54735;SDS011;40632;51.442;11.936;2022-10-01T04:05:30;9.88;;;6.80;;
54735;SDS011;40632;51.442;11.936;2022-10-01T04:07:55;10.07;;;7.55;;
54735;SDS011;40632;51.442;11.936;2022-10-01T04:10:21;8.38;;;7.38;;
54735;SDS011;40632;51.442;11.936;2022-10-01T04:12:46;9.00;;;7.32;;
54735;SDS011;40632;51.442;11.936;2022-10-01T04:15:12;8.75;;;6.63;;
54735;SDS011;40632;51.442;11.936;2022-10-01T04:17:40;6.60;;;5.78;;
54735;SDS011;40632;51.442;11.936;2022-10-01T04:20:06;8.57;;;5.72;;
54735;SDS011;40632;51.442;11.936;2022-10-01T04:22:34;7.40;;;6.30;;
54735;SDS011;40632;51.442;11.936;2022-10-01T04:25:02;9.02;;;6.22;;
54735;SDS011;40632;51.442;11.936;2022-10-01T04:27:29;8.35;;;6.00;;
54735;SDS011;40632;51.442;11.936;2022-10-01T04:29:54;9.88;;;5.97;;
54735;SDS011;40632;51.442;11.936;2022-10-01T04:32:20;6.75;;;5.53;;
54735;SDS011;40632;51.442;11.936;2022-10-01T04:34:48;9.25;;;6.25;;
54735;SDS011;40632;51.442;11.936;2022-10-01T04:37:14;10.02;;;5.82;;
54735;SDS011;40632;51.442;11.936;2022-10-01T04:39:39;6.97;;;6.20;;
54735;SDS011;40632;51.442;11.936;2022-10-01T04:42:05;7.43;;;6.45;;
54735;SDS011;40632;51.442;11.936;2022-10-01T04:44:30;7.70;;;6.60;;
54735;SDS011;40632;51.442;11.936;2022-10-01T04:46:56;7.63;;;6.53;;
54735;SDS011;40632;51.442;11.936;2022-10-01T04:49:21;12.57;;;7.22;;
54735;SDS011;40632;51.442;11.936;2022-10-01T04:51:50;7.70;;;6.55;;
54735;SDS011;40632;51.442;11.936;2022-10-01T04:54:15;9.73;;;7.50;;
54735;SDS011;40632;51.442;11.936;2022-10-01T04:56:41;7.53;;;6.70;;
54735;SDS011;40632;51.442;11.936;2022-10-01T04:59:06;8.90;;;7.07;;
54735;SDS011;40632;51.442;11.936;2022-10-01T05:01:32;8.07;;;7.28;;
54735;SDS011;40632;51.442;11.936;2022-10-01T05:03:57;9.05;;;7.32;;
54735;SDS011;40632;51.442;11.936;2022-10-01T05:06:23;8.45;;;7.28;;
54735;SDS011;40632;51.442;11.936;2022-10-01T05:08:52;8.40;;;7.57;;
54735;SDS011;40632;51.442;11.936;2022-10-01T05:11:17;9.68;;;7.65;;
54735;SDS011;40632;51.442;11.936;2022-10-01T05:13:43;10.00;;;8.50;;
54735;SDS011;40632;51.442;11.936;2022-10-01T05:16:09;10.68;;;8.82;;
54735;SDS011;40632;51.442;11.936;2022-10-01T05:18:34;9.20;;;8.23;;
54735;SDS011;40632;51.442;11.936;2022-10-01T05:21:03;9.32;;;8.30;;
54735;SDS011;40632;51.442;11.936;2022-10-01T05:23:29;9.75;;;8.75;;
54735;SDS011;40632;51.442;11.936;2022-10-01T05:25:57;10.60;;;8.93;;
54735;SDS011;40632;51.442;11.936;2022-10-01T05:28:23;12.35;;;9.73;;
54735;SDS011;40632;51.442;11.936;2022-10-01T05:30:48;10.48;;;9.40;;
54735;SDS011;40632;51.442;11.936;2022-10-01T05:33:14;9.77;;;8.77;;
54735;SDS011;40632;51.442;11.936;2022-10-01T05:35:40;10.05;;;9.05;;
54735;SDS011;40632;51.442;11.936;2022-10-01T05:38:05;13.93;;;9.43;;
54735;SDS011;40632;51.442;11.936;2022-10-01T05:40:31;10.63;;;9.52;;
54735;SDS011;40632;51.442;11.936;2022-10-01T05:42:59;12.50;;;9.35;;
54735;SDS011;40632;51.442;11.936;2022-10-01T05:45:25;11.13;;;9.30;;
54735;SDS011;40632;51.442;11.936;2022-10-01T05:47:55;11.10;;;9.60;;
54735;SDS011;40632;51.442;11.936;2022-10-01T05:50:21;10.77;;;9.55;;
54735;SDS011;40632;51.442;11.936;2022-10-01T05:52:47;10.55;;;9.18;;
54735;SDS011;40632;51.442;11.936;2022-10-01T05:55:13;11.95;;;9.65;;
54735;SDS011;40632;51.442;11.936;2022-10-01T05:57:38;10.95;;;9.75;;
54735;SDS011;40632;51.442;11.936;2022-10-01T06:00:07;10.65;;;9.20;;
54735;SDS011;40632;51.442;11.936;2022-10-01T06:02:33;11.65;;;9.88;;
54735;SDS011;40632;51.442;11.936;2022-10-01T06:04:59;11.93;;;9.27;;
54735;SDS011;40632;51.442;11.936;2022-10-01T06:07:25;15.00;;;9.88;;
54735;SDS011;40632;51.442;11.936;2022-10-01T06:09:50;11.00;;;9.57;;
54735;SDS011;40632;51.442;11.936;2022-10-01T06:12:16;10.88;;;9.10;;
54735;SDS011;40632;51.442;11.936;2022-10-01T06:14:41;12.10;;;9.52;;
54735;SDS011;40632;51.442;11.936;2022-10-01T06:17:09;12.35;;;9.73;;
54735;SDS011;40632;51.442;11.936;2022-10-01T06:19:35;11.13;;;9.93;;
54735;SDS011;40632;51.442;11.936;2022-10-01T06:22:00;13.23;;;9.45;;
54735;SDS011;40632;51.442;11.936;2022-10-01T06:24:26;14.48;;;10.30;;
54735;SDS011;40632;51.442;11.936;2022-10-01T06:26:52;13.38;;;9.85;;
54735;SDS011;40632;51.442;11.936;2022-10-01T06:29:17;10.35;;;9.25;;
54735;SDS011;40632;51.442;11.936;2022-10-01T06:31:43;11.70;;;9.40;;
54735;SDS011;40632;51.442;11.936;2022-10-01T06:34:11;11.02;;;9.80;;
54735;SDS011;40632;51.442;11.936;2022-10-01T06:36:36;12.10;;;10.57;;
54735;SDS011;40632;51.442;11.936;2022-10-01T06:39:02;11.63;;;10.35;;
54735;SDS011;40632;51.442;11.936;2022-10-01T06:41:28;13.02;;;10.00;;
54735;SDS011;40632;51.442;11.936;2022-10-01T06:43:53;13.93;;;10.50;;
54735;SDS011;40632;51.442;11.936;2022-10-01T06:46:19;11.73;;;9.52;;
54735;SDS011;40632;51.442;11.936;2022-10-01T06:48:44;11.57;;;9.23;;
54735;SDS011;40632;51.442;11.936;2022-10-01T06:51:12;12.40;;;9.50;;
54735;SDS011;40632;51.442;11.936;2022-10-01T06:53:38;12.38;;;10.13;;
54735;SDS011;40632;51.442;11.936;2022-10-01T06:56:04;10.93;;;9.20;;
54735;SDS011;40632;51.442;11.936;2022-10-01T06:58:31;10.88;;;8.95;;
54735;SDS011;40632;51.442;11.936;2022-10-01T07:00:57;10.07;;;9.02;;
54735;SDS011;40632;51.442;11.936;2022-10-01T07:03:23;10.32;;;9.23;;
54735;SDS011;40632;51.442;11.936;2022-10-01T07:05:49;10.20;;;9.13;;
54735;SDS011;40632;51.442;11.936;2022-10-01T07:08:17;10.93;;;8.30;;
54735;SDS011;40632;51.442;11.936;2022-10-01T07:10:43;12.13;;;8.50;;
54735;SDS011;40632;51.442;11.936;2022-10-01T07:13:09;10.68;;;7.70;;
54735;SDS011;40632;51.442;11.936;2022-10-01T07:15:36;10.30;;;7.10;;
54735;SDS011;40632;51.442;11.936;2022-10-01T07:18:02;10.07;;;7.53;;
54735;SDS011;40632;51.442;11.936;2022-10-01T07:20:29;8.55;;;6.53;;
54735;SDS011;40632;51.442;11.936;2022-10-01T07:22:55;8.40;;;6.43;;
54735;SDS011;40632;51.442;11.936;2022-10-01T07:25:25;8.07;;;7.28;;
54735;SDS011;40632;51.442;11.936;2022-10-01T07:27:52;9.90;;;8.35;;
54735;SDS011;40632;51.442;11.936;2022-10-01T07:30:19;10.98;;;7.97;;
54735;SDS011;40632;51.442;11.936;2022-10-01T07:32:44;9.73;;;8.00;;
54735;SDS011;40632;51.442;11.936;2022-10-01T07:35:10;9.82;;;7.63;;
54735;SDS011;40632;51.442;11.936;2022-10-01T07:37:35;8.25;;;7.35;;
54735;SDS011;40632;51.442;11.936;2022-10-01T07:40:01;9.35;;;7.30;;
54735;SDS011;40632;51.442;11.936;2022-10-01T07:42:29;8.98;;;7.18;;
54735;SDS011;40632;51.442;11.936;2022-10-01T07:44:55;8.13;;;7.13;;
54735;SDS011;40632;51.442;11.936;2022-10-01T07:47:20;8.65;;;7.68;;
54735;SDS011;40632;51.442;11.936;2022-10-01T07:49:46;8.52;;;7.63;;
54735;SDS011;40632;51.442;11.936;2022-10-01T07:52:11;10.23;;;8.25;;
54735;SDS011;40632;51.442;11.936;2022-10-01T07:54:37;11.88;;;8.45;;
54735;SDS011;40632;51.442;11.936;2022-10-01T07:57:02;13.10;;;8.18;;
54735;SDS011;40632;51.442;11.936;2022-10-01T07:59:30;11.27;;;8.85;;
54735;SDS011;40632;51.442;11.936;2022-10-01T08:01:56;10.15;;;8.15;;
54735;SDS011;40632;51.442;11.936;2022-10-01T08:04:22;9.60;;;6.88;;
54735;SDS011;40632;51.442;11.936;2022-10-01T08:06:47;9.05;;;6.63;;
54735;SDS011;40632;51.442;11.936;2022-10-01T08:09:13;8.25;;;6.45;;
54735;SDS011;40632;51.442;11.936;2022-10-01T08:11:39;9.60;;;5.60;;
54735;SDS011;40632;51.442;11.936;2022-10-01T08:14:05;6.55;;;5.80;;
54735;SDS011;40632;51.442;11.936;2022-10-01T08:16:33;6.28;;;5.53;;
54735;SDS011;40632;51.442;11.936;2022-10-01T08:18:58;7.50;;;5.40;;
54735;SDS011;40632;51.442;11.936;2022-10-01T08:21:24;8.10;;;5.57;;
54735;SDS011;40632;51.442;11.936;2022-10-01T08:23:52;9.50;;;5.30;;
54735;SDS011;40632;51.442;11.936;2022-10-01T08:26:18;5.82;;;5.07;;
54735;SDS011;40632;51.442;11.936;2022-10-01T08:28:43;7.40;;;5.45;;
54735;SDS011;40632;51.442;11.936;2022-10-01T08:31:09;8.98;;;5.72;;
54735;SDS011;40632;51.442;11.936;2022-10-01T08:33:37;8.18;;;5.32;;
54735;SDS011;40632;51.442;11.936;2022-10-01T08:36:03;6.88;;;5.70;;
54735;SDS011;40632;51.442;11.936;2022-10-01T08:38:30;6.60;;;5.30;;
54735;SDS011;40632;51.442;11.936;2022-10-01T08:40:55;7.63;;;5.57;;
54735;SDS011;40632;51.442;11.936;2022-10-01T08:43:28;7.05;;;5.57;;
54735;SDS011;40632;51.442;11.936;2022-10-01T08:45:56;6.55;;;5.28;;
54735;SDS011;40632;51.442;11.936;2022-10-01T08:48:28;8.20;;;5.47;;
54735;SDS011;40632;51.442;11.936;2022-10-01T08:51:02;6.95;;;5.28;;
54735;SDS011;40632;51.442;11.936;2022-10-01T08:53:35;7.03;;;4.22;;
54735;SDS011;40632;51.442;11.936;2022-10-01T08:56:04;7.22;;;5.15;;
54735;SDS011;40632;51.442;11.936;2022-10-01T08:58:31;8.75;;;5.82;;
54735;SDS011;40632;51.442;11.936;2022-10-01T09:01:07;7.40;;;5.20;;
54735;SDS011;40632;51.442;11.936;2022-10-01T09:03:34;5.63;;;4.93;;
54735;SDS011;40632;51.442;11.936;2022-10-01T09:06:06;7.30;;;4.57;;
54735;SDS011;40632;51.442;11.936;2022-10-01T09:08:44;5.85;;;3.60;;
54735;SDS011;40632;51.442;11.936;2022-10-01T09:11:20;3.88;;;3.17;;
54735;SDS011;40632;51.442;11.936;2022-10-01T09:16:56;5.57;;;3.95;;
54735;SDS011;40632;51.442;11.936;2022-10-01T09:19:33;4.22;;;3.45;;
54735;SDS011;40632;51.442;11.936;2022-10-01T09:22:13;6.30;;;3.95;;
54735;SDS011;40632;51.442;11.936;2022-10-01T09:24:49;5.72;;;3.50;;
54735;SDS011;40632;51.442;11.936;2022-10-01T09:27:25;6.00;;;4.38;;
54735;SDS011;40632;51.442;11.936;2022-10-01T09:29:53;5.25;;;3.92;;
54735;SDS011;40632;51.442;11.936;2022-10-01T09:32:23;5.32;;;3.58;;
54735;SDS011;40632;51.442;11.936;2022-10-01T09:34:52;5.82;;;3.58;;
54735;SDS011;40632;51.442;11.936;2022-10-01T09:37:24;3.53;;;2.88;;
54735;SDS011;40632;51.442;11.936;2022-10-01T09:39:58;3.30;;;2.10;;
54735;SDS011;40632;51.442;11.936;2022-10-01T09:42:35;4.85;;;1.90;;
54735;SDS011;40632;51.442;11.936;2022-10-01T09:45:01;4.43;;;1.67;;
54735;SDS011;40632;51.442;11.936;2022-10-01T09:47:26;2.75;;;1.60;;
54735;SDS011;40632;51.442;11.936;2022-10-01T09:49:52;1.45;;;1.25;;
54735;SDS011;40632;51.442;11.936;2022-10-01T09:52:19;1.70;;;1.40;;
54735;SDS011;40632;51.442;11.936;2022-10-01T09:54:52;3.58;;;1.60;;
54735;SDS011;40632;51.442;11.936;2022-10-01T09:57:23;2.25;;;1.42;;
54735;SDS011;40632;51.442;11.936;2022-10-01T09:59:54;3.58;;;2.30;;
54735;SDS011;40632;51.442;11.936;2022-10-01T10:02:31;4.45;;;1.67;;
54735;SDS011;40632;51.442;11.936;2022-10-01T10:05:00;2.20;;;1.35;;
54735;SDS011;40632;51.442;11.936;2022-10-01T10:07:29;1.88;;;1.20;;
54735;SDS011;40632;51.442;11.936;2022-10-01T10:09:55;2.63;;;1.48;;
54735;SDS011;40632;51.442;11.936;2022-10-01T10:12:27;2.42;;;1.45;;
54735;SDS011;40632;51.442;11.936;2022-10-01T10:17:20;2.03;;;1.33;;
54735;SDS011;40632;51.442;11.936;2022-10-01T10:19:47;3.40;;;1.48;;
54735;SDS011;40632;51.442;11.936;2022-10-01T10:22:18;2.22;;;1.58;;
54735;SDS011;40632;51.442;11.936;2022-10-01T10:24:49;2.92;;;1.27;;
54735;SDS011;40632;51.442;11.936;2022-10-01T10:27:19;1.92;;;1.15;;
54735;SDS011;40632;51.442;11.936;2022-10-01T10:29:47;2.85;;;1.23;;
54735;SDS011;40632;51.442;11.936;2022-10-01T10:32:14;2.13;;;1.02;;
54735;SDS011;40632;51.442;11.936;2022-10-01T10:34:48;2.05;;;1.42;;
54735;SDS011;40632;51.442;11.936;2022-10-01T10:37:15;2.58;;;1.20;;
54735;SDS011;40632;51.442;11.936;2022-10-01T10:39:44;1.10;;;1.00;;
54735;SDS011;40632;51.442;11.936;2022-10-01T10:42:16;1.48;;;1.00;;
54735;SDS011;40632;51.442;11.936;2022-10-01T10:44:42;1.67;;;1.20;;
54735;SDS011;40632;51.442;11.936;2022-10-01T10:47:11;1.42;;;1.10;;
54735;SDS011;40632;51.442;11.936;2022-10-01T10:49:40;4.07;;;1.27;;
54735;SDS011;40632;51.442;11.936;2022-10-01T10:52:16;1.45;;;1.15;;
54735;SDS011;40632;51.442;11.936;2022-10-01T10:54:45;1.20;;;0.95;;
54735;SDS011;40632;51.442;11.936;2022-10-01T10:57:18;1.50;;;0.93;;
54735;SDS011;40632;51.442;11.936;2022-10-01T10:59:53;1.10;;;0.82;;
54735;SDS011;40632;51.442;11.936;2022-10-01T11:02:20;1.13;;;0.90;;
54735;SDS011;40632;51.442;11.936;2022-10-01T11:04:47;0.88;;;0.80;;
54735;SDS011;40632;51.442;11.936;2022-10-01T11:07:13;1.35;;;0.90;;
54735;SDS011;40632;51.442;11.936;2022-10-01T11:09:55;1.63;;;1.02;;
54735;SDS011;40632;51.442;11.936;2022-10-01T11:12:37;2.67;;;0.98;;
54735;SDS011;40632;51.442;11.936;2022-10-01T11:15:20;2.03;;;1.00;;
54735;SDS011;40632;51.442;11.936;2022-10-01T11:18:04;1.25;;;0.90;;
54735;SDS011;40632;51.442;11.936;2022-10-01T11:20:50;0.85;;;0.68;;
54735;SDS011;40632;51.442;11.936;2022-10-01T11:26:18;5.15;;;1.10;;
54735;SDS011;40632;51.442;11.936;2022-10-01T11:28:57;2.45;;;0.80;;
54735;SDS011;40632;51.442;11.936;2022-10-01T11:31:35;1.17;;;0.82;;
54735;SDS011;40632;51.442;11.936;2022-10-01T11:37:12;2.05;;;0.73;;
54735;SDS011;40632;51.442;11.936;2022-10-01T11:39:52;1.45;;;0.60;;
54735;SDS011;40632;51.442;11.936;2022-10-01T11:42:20;0.70;;;0.63;;
54735;SDS011;40632;51.442;11.936;2022-10-01T11:44:53;1.98;;;0.82;;
54735;SDS011;40632;51.442;11.936;2022-10-01T11:47:24;1.17;;;0.60;;
54735;SDS011;40632;51.442;11.936;2022-10-01T11:49:55;1.30;;;0.70;;
54735;SDS011;40632;51.442;11.936;2022-10-01T11:52:30;1.10;;;0.70;;
54735;SDS011;40632;51.442;11.936;2022-10-01T11:55:03;0.93;;;0.63;;
54735;SDS011;40632;51.442;11.936;2022-10-01T11:57:36;0.90;;;0.80;;
54735;SDS011;40632;51.442;11.936;2022-10-01T12:00:06;2.10;;;0.90;;
54735;SDS011;40632;51.442;11.936;2022-10-01T12:02:37;0.90;;;0.60;;
54735;SDS011;40632;51.442;11.936;2022-10-01T12:05:11;0.77;;;0.65;;
54735;SDS011;40632;51.442;11.936;2022-10-01T12:07:43;0.88;;;0.60;;
54735;SDS011;40632;51.442;11.936;2022-10-01T12:10:15;2.80;;;0.52;;
54735;SDS011;40632;51.442;11.936;2022-10-01T12:12:53;1.67;;;0.60;;
54735;SDS011;40632;51.442;11.936;2022-10-01T12:15:25;0.60;;;0.60;;
54735;SDS011;40632;51.442;11.936;2022-10-01T12:20:26;0.75;;;0.70;;
54735;SDS011;40632;51.442;11.936;2022-10-01T12:22:55;2.60;;;0.82;;
54735;SDS011;40632;51.442;11.936;2022-10-01T12:25:25;1.23;;;0.90;;
54735;SDS011;40632;51.442;11.936;2022-10-01T12:27:57;0.73;;;0.50;;
54735;SDS011;40632;51.442;11.936;2022-10-01T12:30:34;3.45;;;0.70;;
54735;SDS011;40632;51.442;11.936;2022-10-01T12:33:11;1.20;;;0.60;;
54735;SDS011;40632;51.442;11.936;2022-10-01T12:35:54;1.38;;;0.60;;
54735;SDS011;40632;51.442;11.936;2022-10-01T12:38:32;2.20;;;0.80;;
54735;SDS011;40632;51.442;11.936;2022-10-01T12:41:15;0.70;;;0.60;;
54735;SDS011;40632;51.442;11.936;2022-10-01T12:43:52;1.55;;;0.80;;
54735;SDS011;40632;51.442;11.936;2022-10-01T12:46:35;1.90;;;0.60;;
54735;SDS011;40632;51.442;11.936;2022-10-01T12:49:11;1.67;;;0.60;;
54735;SDS011;40632;51.442;11.936;2022-10-01T12:51:45;1.17;;;0.80;;
54735;SDS011;40632;51.442;11.936;2022-10-01T12:57:05;1.05;;;0.70;;
54735;SDS011;40632;51.442;11.936;2022-10-01T12:59:42;0.98;;;0.60;;
54735;SDS011;40632;51.442;11.936;2022-10-01T13:02:24;0.88;;;0.60;;
54735;SDS011;40632;51.442;11.936;2022-10-01T13:07:44;0.75;;;0.50;;
54735;SDS011;40632;51.442;11.936;2022-10-01T13:10:23;1.35;;;0.60;;
54735;SDS011;40632;51.442;11.936;2022-10-01T13:13:00;1.15;;;0.80;;
54735;SDS011;40632;51.442;11.936;2022-10-01T13:15:30;0.75;;;0.75;;
54735;SDS011;40632;51.442;11.936;2022-10-01T13:18:04;0.50;;;0.50;;
54735;SDS011;40632;51.442;11.936;2022-10-01T13:20:37;1.42;;;0.70;;
54735;SDS011;40632;51.442;11.936;2022-10-01T13:23:11;1.50;;;0.68;;
54735;SDS011;40632;51.442;11.936;2022-10-01T13:25:46;0.98;;;0.70;;
54735;SDS011;40632;51.442;11.936;2022-10-01T13:28:22;0.57;;;0.45;;
54735;SDS011;40632;51.442;11.936;2022-10-01T13:30:55;0.70;;;0.50;;
54735;SDS011;40632;51.442;11.936;2022-10-01T13:33:25;0.60;;;0.50;;
54735;SDS011;40632;51.442;11.936;2022-10-01T13:35:53;0.45;;;0.45;;
54735;SDS011;40632;51.442;11.936;2022-10-01T13:38:25;1.27;;;0.45;;
54735;SDS011;40632;51.442;11.936;2022-10-01T13:40:56;1.25;;;0.65;;
54735;SDS011;40632;51.442;11.936;2022-10-01T13:43:24;1.13;;;0.65;;
54735;SDS011;40632;51.442;11.936;2022-10-01T13:45:50;0.80;;;0.70;;
54735;SDS011;40632;51.442;11.936;2022-10-01T13:48:17;1.35;;;0.88;;
54735;SDS011;40632;51.442;11.936;2022-10-01T13:50:57;0.80;;;0.57;;
54735;SDS011;40632;51.442;11.936;2022-10-01T13:53:25;0.60;;;0.50;;
54735;SDS011;40632;51.442;11.936;2022-10-01T13:55:52;0.80;;;0.50;;
54735;SDS011;40632;51.442;11.936;2022-10-01T13:58:19;0.47;;;0.40;;
54735;SDS011;40632;51.442;11.936;2022-10-01T14:00:47;0.63;;;0.50;;
54735;SDS011;40632;51.442;11.936;2022-10-01T14:03:24;0.98;;;0.68;;
54735;SDS011;40632;51.442;11.936;2022-10-01T14:05:58;1.63;;;0.60;;
54735;SDS011;40632;51.442;11.936;2022-10-01T14:08:27;0.93;;;0.60;;
54735;SDS011;40632;51.442;11.936;2022-10-01T14:10:57;1.10;;;0.70;;
54735;SDS011;40632;51.442;11.936;2022-10-01T14:13:26;1.25;;;0.80;;
54735;SDS011;40632;51.442;11.936;2022-10-01T14:15:53;2.17;;;0.50;;
54735;SDS011;40632;51.442;11.936;2022-10-01T14:18:20;0.93;;;0.60;;
54735;SDS011;40632;51.442;11.936;2022-10-01T14:20:49;2.40;;;0.57;;
54735;SDS011;40632;51.442;11.936;2022-10-01T14:23:24;0.98;;;0.73;;
54735;SDS011;40632;51.442;11.936;2022-10-01T14:25:56;1.85;;;0.70;;
54735;SDS011;40632;51.442;11.936;2022-10-01T14:28:28;1.45;;;0.80;;
54735;SDS011;40632;51.442;11.936;2022-10-01T14:31:05;0.60;;;0.52;;
54735;SDS011;40632;51.442;11.936;2022-10-01T14:33:45;1.17;;;0.70;;
54735;SDS011;40632;51.442;11.936;2022-10-01T14:36:24;1.67;;;0.75;;
54735;SDS011;40632;51.442;11.936;2022-10-01T14:39:04;1.10;;;0.65;;
54735;SDS011;40632;51.442;11.936;2022-10-01T14:41:39;2.30;;;0.80;;
54735;SDS011;40632;51.442;11.936;2022-10-01T14:44:15;2.08;;;0.82;;
54735;SDS011;40632;51.442;11.936;2022-10-01T14:46:43;1.02;;;0.70;;
54735;SDS011;40632;51.442;11.936;2022-10-01T14:49:15;1.05;;;0.70;;
54735;SDS011;40632;51.442;11.936;2022-10-01T14:51:49;1.42;;;0.60;;
54735;SDS011;40632;51.442;11.936;2022-10-01T14:54:19;0.65;;;0.60;;
54735;SDS011;40632;51.442;11.936;2022-10-01T14:56:56;0.93;;;0.60;;
54735;SDS011;40632;51.442;11.936;2022-10-01T14:59:26;0.68;;;0.60;;